N42J KRIC-KORF
Flight info
| Callsign | N42J |
|---|---|
| Flight time | N/A |
| Altitude | 4000 |
| Route | |
| Aircraft | PC12/L-DOV/C |
Departure
| Time | N/A |
|---|---|
| Airport | Richmond International Airport (KRIC) |
Arrival
| Time | 2026-04-29 23:13 |
|---|---|
| Airport | Norfolk International Airport (KORF) |
| Time | Latitude | Longitude | Altitude | Speed | Heading |
|---|---|---|---|---|---|
| 2026-04-29 22:23 | 35.87976 | -78.78538 | 421 ft | 0 kts | 41° |
| 2026-04-29 22:26 | 35.87977 | -78.78537 | 421 ft | 1 kts | 53° |
| 2026-04-29 22:26 | 35.87976 | -78.78520 | 422 ft | 4 kts | 135° |
| 2026-04-29 22:26 | 35.87932 | -78.78474 | 424 ft | 12 kts | 141° |
| 2026-04-29 22:27 | 35.87851 | -78.78397 | 427 ft | 8 kts | 142° |
| 2026-04-29 22:27 | 35.87832 | -78.78369 | 428 ft | 7 kts | 110° |
| 2026-04-29 22:27 | 35.87872 | -78.78297 | 427 ft | 3 kts | 39° |
| 2026-04-29 22:28 | 35.87905 | -78.78257 | 426 ft | 13 kts | 46° |
| 2026-04-29 22:28 | 35.87940 | -78.78172 | 423 ft | 0 kts | 86° |
| 2026-04-29 22:29 | 35.87941 | -78.78149 | 423 ft | 9 kts | 85° |
| 2026-04-29 22:29 | 35.87968 | -78.78027 | 420 ft | 13 kts | 109° |
| 2026-04-29 22:29 | 35.87877 | -78.77985 | 418 ft | 18 kts | 225° |
| 2026-04-29 22:29 | 35.87854 | -78.78015 | 419 ft | 0 kts | 222° |
| 2026-04-29 22:30 | 35.87797 | -78.78084 | 422 ft | 42 kts | 220° |
| 2026-04-29 22:30 | 35.87421 | -78.78548 | 427 ft | 106 kts | 228° |
| 2026-04-29 22:30 | 35.86832 | -78.79166 | 773 ft | 116 kts | 217° |
| 2026-04-29 22:30 | 35.86104 | -78.79777 | 1128 ft | 134 kts | 196° |
| 2026-04-29 22:31 | 35.85181 | -78.79615 | 1607 ft | 144 kts | 148° |
| 2026-04-29 22:31 | 35.84396 | -78.78774 | 2035 ft | 157 kts | 131° |
| 2026-04-29 22:31 | 35.83658 | -78.77716 | 2374 ft | 172 kts | 132° |
| 2026-04-29 22:31 | 35.82793 | -78.76514 | 2479 ft | 200 kts | 133° |
| 2026-04-29 22:32 | 35.82085 | -78.74942 | 2524 ft | 223 kts | 96° |
| 2026-04-29 22:32 | 35.82015 | -78.72970 | 2513 ft | 241 kts | 92° |
| 2026-04-29 22:32 | 35.82066 | -78.70852 | 2501 ft | 252 kts | 85° |
| 2026-04-29 22:32 | 35.82220 | -78.68658 | 2486 ft | 258 kts | 79° |
| 2026-04-29 22:33 | 35.82616 | -78.66486 | 2486 ft | 262 kts | 77° |
| 2026-04-29 22:33 | 35.83029 | -78.64289 | 2476 ft | 265 kts | 76° |
| 2026-04-29 22:33 | 35.83448 | -78.62067 | 2478 ft | 267 kts | 76° |
| 2026-04-29 22:33 | 35.83862 | -78.59856 | 2620 ft | 262 kts | 76° |
| 2026-04-29 22:34 | 35.84276 | -78.57666 | 2949 ft | 256 kts | 76° |
| 2026-04-29 22:34 | 35.84667 | -78.55586 | 3284 ft | 252 kts | 76° |
| 2026-04-29 22:34 | 35.85056 | -78.53507 | 3623 ft | 248 kts | 76° |
| 2026-04-29 22:34 | 35.85438 | -78.51462 | 3954 ft | 246 kts | 75° |
| 2026-04-29 22:35 | 35.85817 | -78.49424 | 4299 ft | 244 kts | 75° |
| 2026-04-29 22:35 | 35.86198 | -78.47369 | 4649 ft | 244 kts | 75° |
| 2026-04-29 22:35 | 35.86575 | -78.45332 | 4974 ft | 243 kts | 75° |
| 2026-04-29 22:35 | 35.86943 | -78.43330 | 5303 ft | 243 kts | 74° |
| 2026-04-29 22:36 | 35.87315 | -78.41305 | 5650 ft | 243 kts | 74° |
| 2026-04-29 22:36 | 35.87687 | -78.39264 | 5995 ft | 244 kts | 74° |
| 2026-04-29 22:36 | 35.88059 | -78.37216 | 6345 ft | 244 kts | 73° |
| 2026-04-29 22:36 | 35.88428 | -78.35175 | 6673 ft | 245 kts | 73° |
| 2026-04-29 22:37 | 35.88798 | -78.33121 | 6990 ft | 246 kts | 73° |
| 2026-04-29 22:37 | 35.89167 | -78.31063 | 7318 ft | 247 kts | 73° |
| 2026-04-29 22:37 | 35.89543 | -78.28961 | 7464 ft | 258 kts | 73° |
| 2026-04-29 22:37 | 35.89935 | -78.26763 | 7485 ft | 271 kts | 74° |
| 2026-04-29 22:38 | 35.90342 | -78.24449 | 7483 ft | 281 kts | 74° |
| 2026-04-29 22:38 | 35.90763 | -78.22034 | 7477 ft | 289 kts | 75° |
| 2026-04-29 22:38 | 35.91185 | -78.19598 | 7476 ft | 294 kts | 75° |
| 2026-04-29 22:38 | 35.91609 | -78.17124 | 7468 ft | 298 kts | 75° |
| 2026-04-29 22:39 | 35.92032 | -78.14635 | 7478 ft | 300 kts | 75° |
| 2026-04-29 22:39 | 35.92456 | -78.12106 | 7473 ft | 302 kts | 75° |
| 2026-04-29 22:39 | 35.92883 | -78.09538 | 7486 ft | 304 kts | 75° |
| 2026-04-29 22:39 | 35.93302 | -78.06988 | 7466 ft | 306 kts | 76° |
| 2026-04-29 22:40 | 35.93717 | -78.04421 | 7460 ft | 307 kts | 76° |
| 2026-04-29 22:40 | 35.94127 | -78.01846 | 7461 ft | 307 kts | 76° |
| 2026-04-29 22:40 | 35.94535 | -77.99245 | 7472 ft | 306 kts | 76° |
| 2026-04-29 22:40 | 35.94929 | -77.96681 | 7465 ft | 306 kts | 76° |
| 2026-04-29 22:41 | 35.95312 | -77.94096 | 7463 ft | 306 kts | 77° |
| 2026-04-29 22:41 | 35.95675 | -77.91528 | 7474 ft | 306 kts | 77° |
| 2026-04-29 22:41 | 35.95948 | -77.88895 | 7460 ft | 309 kts | 84° |
| 2026-04-29 22:41 | 35.96523 | -77.86410 | 7507 ft | 299 kts | 52° |
| 2026-04-29 22:42 | 35.97832 | -77.84457 | 7459 ft | 299 kts | 46° |
| 2026-04-29 22:42 | 35.99100 | -77.82432 | 7472 ft | 301 kts | 49° |
| 2026-04-29 22:42 | 36.00308 | -77.80296 | 7469 ft | 302 kts | 52° |
| 2026-04-29 22:42 | 36.01460 | -77.78122 | 7467 ft | 302 kts | 53° |
| 2026-04-29 22:43 | 36.02573 | -77.75934 | 7475 ft | 302 kts | 54° |
| 2026-04-29 22:43 | 36.03668 | -77.73731 | 7475 ft | 302 kts | 54° |
| 2026-04-29 22:43 | 36.04749 | -77.71525 | 7482 ft | 301 kts | 54° |
| 2026-04-29 22:43 | 36.05838 | -77.69289 | 7481 ft | 302 kts | 55° |
| 2026-04-29 22:44 | 36.06910 | -77.67075 | 7470 ft | 303 kts | 55° |
| 2026-04-29 22:44 | 36.07991 | -77.64833 | 7465 ft | 303 kts | 55° |
| 2026-04-29 22:44 | 36.09073 | -77.62587 | 7465 ft | 302 kts | 55° |
| 2026-04-29 22:44 | 36.10130 | -77.60387 | 7477 ft | 302 kts | 55° |
| 2026-04-29 22:45 | 36.11219 | -77.58123 | 7481 ft | 303 kts | 55° |
| 2026-04-29 22:45 | 36.12286 | -77.55900 | 7479 ft | 303 kts | 55° |
| 2026-04-29 22:45 | 36.13723 | -77.52904 | 7478 ft | 303 kts | 55° |
| 2026-04-29 22:45 | 36.14434 | -77.51417 | 7481 ft | 303 kts | 55° |
| 2026-04-29 22:46 | 36.15519 | -77.49152 | 7475 ft | 303 kts | 55° |
| 2026-04-29 22:46 | 36.16596 | -77.46904 | 7473 ft | 303 kts | 55° |
| 2026-04-29 22:46 | 36.17666 | -77.44666 | 7473 ft | 303 kts | 55° |
| 2026-04-29 22:46 | 36.18744 | -77.42413 | 7473 ft | 303 kts | 56° |
| 2026-04-29 22:47 | 36.19803 | -77.40196 | 7467 ft | 303 kts | 56° |
| 2026-04-29 22:47 | 36.20883 | -77.37932 | 7471 ft | 303 kts | 56° |
| 2026-04-29 22:47 | 36.21941 | -77.35712 | 7479 ft | 303 kts | 56° |
| 2026-04-29 22:47 | 36.23024 | -77.33443 | 7475 ft | 303 kts | 56° |
| 2026-04-29 22:48 | 36.24088 | -77.31213 | 7471 ft | 302 kts | 57° |
| 2026-04-29 22:48 | 36.25153 | -77.28973 | 7449 ft | 302 kts | 57° |
| 2026-04-29 22:48 | 36.26194 | -77.26755 | 7211 ft | 296 kts | 57° |
| 2026-04-29 22:48 | 36.27232 | -77.24567 | 6997 ft | 290 kts | 57° |
| 2026-04-29 22:49 | 36.28240 | -77.22440 | 6801 ft | 286 kts | 57° |
| 2026-04-29 22:49 | 36.29244 | -77.20324 | 6599 ft | 283 kts | 57° |
| 2026-04-29 22:49 | 36.30235 | -77.18234 | 6400 ft | 280 kts | 57° |
| 2026-04-29 22:49 | 36.31225 | -77.16147 | 6199 ft | 278 kts | 57° |
| 2026-04-29 22:50 | 36.32201 | -77.14088 | 5998 ft | 277 kts | 58° |
| 2026-04-29 22:50 | 36.33173 | -77.12039 | 5798 ft | 275 kts | 58° |
| 2026-04-29 22:50 | 36.34132 | -77.10014 | 5607 ft | 274 kts | 58° |
| 2026-04-29 22:50 | 36.35091 | -77.07984 | 5424 ft | 273 kts | 58° |
| 2026-04-29 22:51 | 36.36051 | -77.05958 | 5220 ft | 272 kts | 58° |
| 2026-04-29 22:51 | 36.37011 | -77.03925 | 5019 ft | 271 kts | 58° |
| 2026-04-29 22:51 | 36.38901 | -76.99923 | 4633 ft | 269 kts | 59° |
| 2026-04-29 22:52 | 36.39851 | -76.97912 | 4503 ft | 266 kts | 59° |
| 2026-04-29 22:52 | 36.40767 | -76.95971 | 4479 ft | 261 kts | 59° |
| 2026-04-29 22:52 | 36.41688 | -76.94030 | 4476 ft | 264 kts | 59° |
| 2026-04-29 22:52 | 36.42632 | -76.92033 | 4474 ft | 266 kts | 59° |
| 2026-04-29 22:53 | 36.43558 | -76.90070 | 4474 ft | 268 kts | 59° |
| 2026-04-29 22:53 | 36.44500 | -76.88065 | 4475 ft | 269 kts | 59° |
| 2026-04-29 22:53 | 36.45764 | -76.85376 | 4478 ft | 270 kts | 59° |
| 2026-04-29 22:53 | 36.46395 | -76.84035 | 4477 ft | 271 kts | 59° |
| 2026-04-29 22:54 | 36.47347 | -76.82006 | 4474 ft | 272 kts | 59° |
| 2026-04-29 22:54 | 36.48292 | -76.79990 | 4472 ft | 272 kts | 59° |
| 2026-04-29 22:54 | 36.49255 | -76.77938 | 4475 ft | 272 kts | 59° |
| 2026-04-29 22:54 | 36.50206 | -76.75908 | 4470 ft | 272 kts | 59° |
| 2026-04-29 22:55 | 36.51162 | -76.73869 | 4466 ft | 273 kts | 59° |
| 2026-04-29 22:55 | 36.52113 | -76.71837 | 4475 ft | 273 kts | 59° |
| 2026-04-29 22:55 | 36.53068 | -76.69795 | 4481 ft | 273 kts | 59° |
| 2026-04-29 22:55 | 36.54022 | -76.67754 | 4470 ft | 273 kts | 59° |
| 2026-04-29 22:56 | 36.54972 | -76.65724 | 4482 ft | 273 kts | 59° |
| 2026-04-29 22:56 | 36.55915 | -76.63691 | 4484 ft | 273 kts | 59° |
| 2026-04-29 22:56 | 36.56867 | -76.61623 | 4464 ft | 273 kts | 60° |
| 2026-04-29 22:56 | 36.57800 | -76.59602 | 4478 ft | 272 kts | 59° |
| 2026-04-29 22:57 | 36.58749 | -76.57553 | 4487 ft | 272 kts | 59° |
| 2026-04-29 22:57 | 36.59695 | -76.55518 | 4486 ft | 273 kts | 59° |
| 2026-04-29 22:57 | 36.60654 | -76.53461 | 4490 ft | 273 kts | 59° |
| 2026-04-29 22:57 | 36.61600 | -76.51427 | 4491 ft | 273 kts | 59° |
| 2026-04-29 22:58 | 36.62548 | -76.49385 | 4489 ft | 274 kts | 59° |
| 2026-04-29 22:58 | 36.63493 | -76.47351 | 4493 ft | 274 kts | 59° |
| 2026-04-29 22:58 | 36.64417 | -76.45362 | 4489 ft | 274 kts | 59° |
| 2026-04-29 22:58 | 36.65298 | -76.43463 | 4491 ft | 274 kts | 59° |
| 2026-04-29 22:59 | 36.66992 | -76.39808 | 4492 ft | 274 kts | 59° |
| 2026-04-29 22:59 | 36.68000 | -76.37633 | 4496 ft | 274 kts | 59° |
| 2026-04-29 22:59 | 36.68951 | -76.35580 | 4494 ft | 274 kts | 59° |
| 2026-04-29 23:00 | 36.69900 | -76.33528 | 4493 ft | 274 kts | 60° |
| 2026-04-29 23:00 | 36.70814 | -76.31552 | 4494 ft | 274 kts | 60° |
| 2026-04-29 23:00 | 36.71767 | -76.29491 | 4495 ft | 274 kts | 60° |
| 2026-04-29 23:00 | 36.72716 | -76.27437 | 4501 ft | 274 kts | 60° |
| 2026-04-29 23:01 | 36.73842 | -76.25531 | 4508 ft | 273 kts | 36° |
| 2026-04-29 23:01 | 36.75460 | -76.24322 | 4438 ft | 276 kts | 28° |
| 2026-04-29 23:01 | 36.77134 | -76.23183 | 4239 ft | 267 kts | 27° |
| 2026-04-29 23:01 | 36.78733 | -76.22116 | 4038 ft | 257 kts | 27° |
| 2026-04-29 23:02 | 36.80294 | -76.21075 | 3835 ft | 247 kts | 27° |
| 2026-04-29 23:02 | 36.81775 | -76.20087 | 3633 ft | 239 kts | 27° |
| 2026-04-29 23:02 | 36.83216 | -76.19128 | 3437 ft | 233 kts | 28° |
| 2026-04-29 23:02 | 36.84642 | -76.18179 | 3242 ft | 232 kts | 28° |
| 2026-04-29 23:03 | 36.86058 | -76.17233 | 3048 ft | 231 kts | 28° |
| 2026-04-29 23:03 | 36.87480 | -76.16285 | 2851 ft | 231 kts | 28° |
| 2026-04-29 23:03 | 36.88805 | -76.15125 | 2645 ft | 230 kts | 43° |
| 2026-04-29 23:03 | 36.90011 | -76.13803 | 2444 ft | 229 kts | 44° |
| 2026-04-29 23:04 | 36.91195 | -76.12483 | 2251 ft | 229 kts | 44° |
| 2026-04-29 23:04 | 36.92383 | -76.11164 | 2061 ft | 228 kts | 44° |
| 2026-04-29 23:04 | 36.93547 | -76.09873 | 2011 ft | 220 kts | 44° |
| 2026-04-29 23:04 | 36.94678 | -76.08623 | 1999 ft | 212 kts | 45° |
| 2026-04-29 23:05 | 36.95768 | -76.07416 | 1991 ft | 205 kts | 45° |
| 2026-04-29 23:05 | 36.96817 | -76.06255 | 1997 ft | 199 kts | 45° |
| 2026-04-29 23:05 | 36.97841 | -76.05120 | 1997 ft | 194 kts | 45° |
| 2026-04-29 23:05 | 36.98838 | -76.04015 | 2000 ft | 190 kts | 45° |
| 2026-04-29 23:06 | 36.99818 | -76.02928 | 2000 ft | 186 kts | 46° |
| 2026-04-29 23:06 | 37.00772 | -76.01868 | 2002 ft | 183 kts | 45° |
| 2026-04-29 23:06 | 37.01773 | -76.00884 | 1986 ft | 185 kts | 26° |
| 2026-04-29 23:06 | 37.03019 | -76.00834 | 2014 ft | 181 kts | 338° |
| 2026-04-29 23:07 | 37.03939 | -76.01799 | 2014 ft | 168 kts | 290° |
| 2026-04-29 23:07 | 37.04328 | -76.03140 | 2000 ft | 164 kts | 280° |
| 2026-04-29 23:07 | 37.04534 | -76.04439 | 2175 ft | 140 kts | 256° |
| 2026-04-29 23:07 | 37.04094 | -76.05472 | 2050 ft | 135 kts | 221° |
| 2026-04-29 23:08 | 37.03420 | -76.06306 | 1991 ft | 135 kts | 218° |
| 2026-04-29 23:08 | 37.02714 | -76.07069 | 1986 ft | 132 kts | 214° |
| 2026-04-29 23:08 | 37.02008 | -76.07789 | 1983 ft | 129 kts | 213° |
| 2026-04-29 23:08 | 37.01312 | -76.08487 | 1983 ft | 127 kts | 213° |
| 2026-04-29 23:09 | 37.00625 | -76.09166 | 1985 ft | 123 kts | 212° |
| 2026-04-29 23:09 | 36.99969 | -76.09811 | 1989 ft | 118 kts | 212° |
| 2026-04-29 23:09 | 36.99337 | -76.10429 | 1983 ft | 112 kts | 212° |
| 2026-04-29 23:09 | 36.98743 | -76.11007 | 1975 ft | 108 kts | 211° |
| 2026-04-29 23:10 | 36.98126 | -76.11603 | 1842 ft | 113 kts | 211° |
| 2026-04-29 23:10 | 36.97490 | -76.12219 | 1700 ft | 118 kts | 212° |
| 2026-04-29 23:10 | 36.96836 | -76.12852 | 1545 ft | 121 kts | 213° |
| 2026-04-29 23:10 | 36.96161 | -76.13508 | 1390 ft | 123 kts | 212° |
| 2026-04-29 23:11 | 36.95482 | -76.14169 | 1236 ft | 123 kts | 211° |
| 2026-04-29 23:11 | 36.94832 | -76.14799 | 1078 ft | 111 kts | 212° |
| 2026-04-29 23:11 | 36.94249 | -76.15365 | 929 ft | 103 kts | 210° |
| 2026-04-29 23:11 | 36.93691 | -76.15902 | 786 ft | 97 kts | 210° |
| 2026-04-29 23:12 | 36.93164 | -76.16408 | 662 ft | 94 kts | 210° |
| 2026-04-29 23:12 | 36.92655 | -76.16893 | 530 ft | 93 kts | 212° |
| 2026-04-29 23:12 | 36.92140 | -76.17402 | 406 ft | 96 kts | 212° |
| 2026-04-29 23:12 | 36.91609 | -76.17901 | 324 ft | 94 kts | 208° |
| 2026-04-29 23:13 | 36.91081 | -76.18420 | 196 ft | 97 kts | 212° |
| 2026-04-29 23:13 | 36.90549 | -76.18936 | 40 ft | 96 kts | 210° |
| 2026-04-29 23:13 | 36.90089 | -76.19376 | 15 ft | 61 kts | 221° |
| 2026-04-29 23:13 | 36.89878 | -76.19582 | 20 ft | 33 kts | 222° |